Inyokern, CA (93527)

3:23 PM PDT on August 31, 2016 (GMT -0700)
5 miles West of town | | Change Station

Elev 2400 ft 35.65 °N, 117.76 °W | Updated 2 minutes ago

Partly Cloudy
Partly Cloudy
100.4 °F
Feels Like 95 °F
N
10.0
Wind Variable Wind from SSW
Gusts 24.0 mph

Today
High -- | Low -- °F
--% Chance of Precip.
Yesterday
High -- | Low -- °F
Precip. -- in
Pressure 29.76 in
Visibility 10.0 miles
Clouds Few 11000 ft
Few 25000 ft
Heat Index 95 °F
Dew Point 31 °F
Humidity 9%
Rainfall 0.00 in
Snow Depth Not available.
6:23 AM 7:19 PM
Waning Crescent, 0% visible
METAR KNID 312156Z 19020G27KT 10SM FEW110 FEW250 40/M01 A2984 RMK AO2 PK WND 19031/2117 SLP076 T04001006 $
Pressure 29.76 in
Visibility 10.0 miles
Clouds Few 11000 ft
Few 25000 ft
Heat Index 95 °F
Dew Point 31 °F
Humidity 9%
Rainfall 0.00 in
Snow Depth Not available.
6:23 AM 7:19 PM
Waning Crescent, 0% visible
METAR KNID 312156Z 19020G27KT 10SM FEW110 FEW250 40/M01 A2984 RMK AO2 PK WND 19031/2117 SLP076 T04001006 $

10-Day Weather Forecast

Almanac

Astronomy

Aug. 31, 2016 Rise Set
Actual Time
Civil Twilight
Nautical Twilight
Astronomical Twilight
Moon
Length of Visible Light
Length of Day
Tomorrow will be .
, % of the Moon is Illuminated

Today's Extremes

State Highs State Lows

Community

WunderPhotos

Upload Photos

1,936,200 photos uploaded!

WunderBlog® & News

Nearby

Air Quality

  Air Quality AQ Index Pollutant
Not available.

Snow Depth

Station Depth Elevation

Earthquake Activity

City Distance Mag. Time & Date
Minimum magnitude displayed is 2.5.

Coastal Water Temperatures

Place Temperature

Stations

Nearby Weather Stations

Station Location Temp. Windchill Dew Point Humidity Wind Precip. Elev Updated Type
                   

Watches & Warnings

There are currently no watches in effect.